sensor_id;sensor_type;location;lat;lon;timestamp;P1;durP1;ratioP1;P2;durP2;ratioP2
10281;SDS011;5186;59.472;18.048;2023-04-03T00:00:08;4.93;;;1.20;;
10281;SDS011;5186;59.472;18.048;2023-04-03T00:02:35;4.83;;;1.10;;
10281;SDS011;5186;59.472;18.048;2023-04-03T00:05:00;2.67;;;1.10;;
10281;SDS011;5186;59.472;18.048;2023-04-03T00:07:26;5.63;;;1.17;;
10281;SDS011;5186;59.472;18.048;2023-04-03T00:09:52;5.43;;;1.23;;
10281;SDS011;5186;59.472;18.048;2023-04-03T00:12:17;3.10;;;1.67;;
10281;SDS011;5186;59.472;18.048;2023-04-03T00:14:43;6.17;;;1.30;;
10281;SDS011;5186;59.472;18.048;2023-04-03T00:17:08;6.37;;;1.60;;
10281;SDS011;5186;59.472;18.048;2023-04-03T00:19:34;5.00;;;1.17;;
10281;SDS011;5186;59.472;18.048;2023-04-03T00:22:00;3.73;;;1.03;;
10281;SDS011;5186;59.472;18.048;2023-04-03T00:24:25;7.73;;;1.20;;
10281;SDS011;5186;59.472;18.048;2023-04-03T00:26:51;3.23;;;0.97;;
10281;SDS011;5186;59.472;18.048;2023-04-03T00:29:16;4.67;;;1.13;;
10281;SDS011;5186;59.472;18.048;2023-04-03T00:31:42;3.37;;;0.97;;
10281;SDS011;5186;59.472;18.048;2023-04-03T00:34:08;2.47;;;1.00;;
10281;SDS011;5186;59.472;18.048;2023-04-03T00:36:33;2.63;;;1.00;;
10281;SDS011;5186;59.472;18.048;2023-04-03T00:38:59;5.13;;;1.10;;
10281;SDS011;5186;59.472;18.048;2023-04-03T00:41:24;4.40;;;1.00;;
10281;SDS011;5186;59.472;18.048;2023-04-03T00:43:51;2.67;;;1.00;;
10281;SDS011;5186;59.472;18.048;2023-04-03T00:46:17;2.50;;;1.20;;
10281;SDS011;5186;59.472;18.048;2023-04-03T00:48:44;6.40;;;1.07;;
10281;SDS011;5186;59.472;18.048;2023-04-03T00:51:13;5.53;;;1.20;;
10281;SDS011;5186;59.472;18.048;2023-04-03T00:53:43;3.80;;;1.00;;
10281;SDS011;5186;59.472;18.048;2023-04-03T00:56:12;6.37;;;1.13;;
10281;SDS011;5186;59.472;18.048;2023-04-03T00:58:52;4.70;;;1.87;;
10281;SDS011;5186;59.472;18.048;2023-04-03T01:01:24;4.23;;;0.90;;
10281;SDS011;5186;59.472;18.048;2023-04-03T01:03:52;4.73;;;1.07;;
10281;SDS011;5186;59.472;18.048;2023-04-03T01:06:20;3.47;;;1.20;;
10281;SDS011;5186;59.472;18.048;2023-04-03T01:08:49;4.23;;;1.30;;
10281;SDS011;5186;59.472;18.048;2023-04-03T01:11:15;6.83;;;1.47;;
10281;SDS011;5186;59.472;18.048;2023-04-03T01:13:41;4.93;;;1.00;;
10281;SDS011;5186;59.472;18.048;2023-04-03T01:16:07;4.53;;;0.93;;
10281;SDS011;5186;59.472;18.048;2023-04-03T01:18:34;5.03;;;1.07;;
10281;SDS011;5186;59.472;18.048;2023-04-03T01:24:10;1.87;;;1.00;;
10281;SDS011;5186;59.472;18.048;2023-04-03T01:26:49;6.37;;;1.00;;
10281;SDS011;5186;59.472;18.048;2023-04-03T01:29:15;3.93;;;1.10;;
10281;SDS011;5186;59.472;18.048;2023-04-03T01:31:48;2.03;;;0.80;;
10281;SDS011;5186;59.472;18.048;2023-04-03T01:34:19;6.53;;;1.37;;
10281;SDS011;5186;59.472;18.048;2023-04-03T01:36:45;5.87;;;1.30;;
10281;SDS011;5186;59.472;18.048;2023-04-03T01:39:11;6.97;;;1.20;;
10281;SDS011;5186;59.472;18.048;2023-04-03T01:41:37;2.00;;;1.03;;
10281;SDS011;5186;59.472;18.048;2023-04-03T01:44:02;5.53;;;1.03;;
10281;SDS011;5186;59.472;18.048;2023-04-03T01:46:29;5.53;;;1.10;;
10281;SDS011;5186;59.472;18.048;2023-04-03T01:48:54;4.40;;;1.10;;
10281;SDS011;5186;59.472;18.048;2023-04-03T01:51:20;5.00;;;1.10;;
10281;SDS011;5186;59.472;18.048;2023-04-03T01:53:46;4.97;;;0.83;;
10281;SDS011;5186;59.472;18.048;2023-04-03T01:56:11;5.70;;;0.93;;
10281;SDS011;5186;59.472;18.048;2023-04-03T01:58:37;3.87;;;1.20;;
10281;SDS011;5186;59.472;18.048;2023-04-03T02:01:03;4.90;;;1.10;;
10281;SDS011;5186;59.472;18.048;2023-04-03T02:03:29;3.27;;;1.07;;
10281;SDS011;5186;59.472;18.048;2023-04-03T02:05:55;3.60;;;1.13;;
10281;SDS011;5186;59.472;18.048;2023-04-03T02:08:21;3.23;;;0.93;;
10281;SDS011;5186;59.472;18.048;2023-04-03T02:10:47;3.07;;;1.10;;
10281;SDS011;5186;59.472;18.048;2023-04-03T02:13:13;3.30;;;1.27;;
10281;SDS011;5186;59.472;18.048;2023-04-03T02:15:39;3.07;;;1.07;;
10281;SDS011;5186;59.472;18.048;2023-04-03T02:18:05;5.93;;;1.03;;
10281;SDS011;5186;59.472;18.048;2023-04-03T02:20:31;2.23;;;1.03;;
10281;SDS011;5186;59.472;18.048;2023-04-03T02:22:58;5.10;;;1.23;;
10281;SDS011;5186;59.472;18.048;2023-04-03T02:25:23;4.53;;;1.23;;
10281;SDS011;5186;59.472;18.048;2023-04-03T02:27:49;8.07;;;1.30;;
10281;SDS011;5186;59.472;18.048;2023-04-03T02:30:15;3.67;;;0.70;;
10281;SDS011;5186;59.472;18.048;2023-04-03T02:32:41;4.30;;;1.40;;
10281;SDS011;5186;59.472;18.048;2023-04-03T02:35:07;6.47;;;1.47;;
10281;SDS011;5186;59.472;18.048;2023-04-03T02:37:34;3.17;;;0.97;;
10281;SDS011;5186;59.472;18.048;2023-04-03T02:40:00;4.17;;;1.00;;
10281;SDS011;5186;59.472;18.048;2023-04-03T02:42:25;4.67;;;1.00;;
10281;SDS011;5186;59.472;18.048;2023-04-03T02:44:51;4.00;;;1.07;;
10281;SDS011;5186;59.472;18.048;2023-04-03T02:47:16;4.67;;;1.13;;
10281;SDS011;5186;59.472;18.048;2023-04-03T02:49:42;2.93;;;0.90;;
10281;SDS011;5186;59.472;18.048;2023-04-03T02:52:11;2.70;;;1.43;;
10281;SDS011;5186;59.472;18.048;2023-04-03T02:54:37;2.93;;;0.93;;
10281;SDS011;5186;59.472;18.048;2023-04-03T02:57:03;7.93;;;1.17;;
10281;SDS011;5186;59.472;18.048;2023-04-03T02:59:28;4.03;;;0.87;;
10281;SDS011;5186;59.472;18.048;2023-04-03T03:01:54;3.50;;;1.13;;
10281;SDS011;5186;59.472;18.048;2023-04-03T03:04:20;3.53;;;1.00;;
10281;SDS011;5186;59.472;18.048;2023-04-03T03:06:46;3.67;;;1.20;;
10281;SDS011;5186;59.472;18.048;2023-04-03T03:09:12;4.33;;;1.00;;
10281;SDS011;5186;59.472;18.048;2023-04-03T03:11:38;7.47;;;1.13;;
10281;SDS011;5186;59.472;18.048;2023-04-03T03:14:03;3.77;;;1.17;;
10281;SDS011;5186;59.472;18.048;2023-04-03T03:16:29;3.57;;;0.83;;
10281;SDS011;5186;59.472;18.048;2023-04-03T03:18:54;5.37;;;1.30;;
10281;SDS011;5186;59.472;18.048;2023-04-03T03:21:20;4.07;;;1.10;;
10281;SDS011;5186;59.472;18.048;2023-04-03T03:23:46;3.17;;;1.63;;
10281;SDS011;5186;59.472;18.048;2023-04-03T03:26:11;4.40;;;1.30;;
10281;SDS011;5186;59.472;18.048;2023-04-03T03:28:38;6.33;;;0.90;;
10281;SDS011;5186;59.472;18.048;2023-04-03T03:31:04;6.47;;;1.23;;
10281;SDS011;5186;59.472;18.048;2023-04-03T03:33:30;3.00;;;0.90;;
10281;SDS011;5186;59.472;18.048;2023-04-03T03:35:56;4.33;;;1.20;;
10281;SDS011;5186;59.472;18.048;2023-04-03T03:38:22;4.93;;;1.57;;
10281;SDS011;5186;59.472;18.048;2023-04-03T03:40:48;3.70;;;1.17;;
10281;SDS011;5186;59.472;18.048;2023-04-03T03:43:15;3.63;;;1.10;;
10281;SDS011;5186;59.472;18.048;2023-04-03T03:45:41;4.27;;;0.93;;
10281;SDS011;5186;59.472;18.048;2023-04-03T03:48:07;5.57;;;1.13;;
10281;SDS011;5186;59.472;18.048;2023-04-03T03:50:33;4.90;;;0.90;;
10281;SDS011;5186;59.472;18.048;2023-04-03T03:52:58;3.27;;;0.80;;
10281;SDS011;5186;59.472;18.048;2023-04-03T03:55:24;5.17;;;1.20;;
10281;SDS011;5186;59.472;18.048;2023-04-03T03:57:50;3.40;;;1.00;;
10281;SDS011;5186;59.472;18.048;2023-04-03T04:00:16;1.80;;;1.00;;
10281;SDS011;5186;59.472;18.048;2023-04-03T04:02:42;4.73;;;0.90;;
10281;SDS011;5186;59.472;18.048;2023-04-03T04:05:08;7.43;;;1.23;;
10281;SDS011;5186;59.472;18.048;2023-04-03T04:07:33;4.97;;;1.23;;
10281;SDS011;5186;59.472;18.048;2023-04-03T04:09:59;4.63;;;1.30;;
10281;SDS011;5186;59.472;18.048;2023-04-03T04:12:25;4.50;;;1.17;;
10281;SDS011;5186;59.472;18.048;2023-04-03T04:14:51;5.50;;;0.97;;
10281;SDS011;5186;59.472;18.048;2023-04-03T04:17:16;4.87;;;1.10;;
10281;SDS011;5186;59.472;18.048;2023-04-03T04:19:42;6.77;;;1.17;;
10281;SDS011;5186;59.472;18.048;2023-04-03T04:22:07;3.83;;;1.17;;
10281;SDS011;5186;59.472;18.048;2023-04-03T04:24:33;2.87;;;0.80;;
10281;SDS011;5186;59.472;18.048;2023-04-03T04:26:58;6.53;;;1.23;;
10281;SDS011;5186;59.472;18.048;2023-04-03T04:29:24;4.53;;;1.30;;
10281;SDS011;5186;59.472;18.048;2023-04-03T04:31:49;3.43;;;1.20;;
10281;SDS011;5186;59.472;18.048;2023-04-03T04:34:15;4.40;;;1.07;;
10281;SDS011;5186;59.472;18.048;2023-04-03T04:36:41;5.60;;;1.37;;
10281;SDS011;5186;59.472;18.048;2023-04-03T04:39:06;4.93;;;1.20;;
10281;SDS011;5186;59.472;18.048;2023-04-03T04:41:32;1.37;;;0.93;;
10281;SDS011;5186;59.472;18.048;2023-04-03T04:43:59;3.30;;;0.90;;
10281;SDS011;5186;59.472;18.048;2023-04-03T04:46:25;3.37;;;0.97;;
10281;SDS011;5186;59.472;18.048;2023-04-03T04:48:51;4.13;;;0.80;;
10281;SDS011;5186;59.472;18.048;2023-04-03T04:51:17;3.63;;;0.93;;
10281;SDS011;5186;59.472;18.048;2023-04-03T04:53:42;7.40;;;1.40;;
10281;SDS011;5186;59.472;18.048;2023-04-03T04:56:09;6.23;;;1.00;;
10281;SDS011;5186;59.472;18.048;2023-04-03T04:58:35;4.50;;;1.23;;
10281;SDS011;5186;59.472;18.048;2023-04-03T05:01:06;5.10;;;1.30;;
10281;SDS011;5186;59.472;18.048;2023-04-03T05:03:33;3.50;;;0.97;;
10281;SDS011;5186;59.472;18.048;2023-04-03T05:05:59;3.03;;;1.17;;
10281;SDS011;5186;59.472;18.048;2023-04-03T05:08:25;4.77;;;1.20;;
10281;SDS011;5186;59.472;18.048;2023-04-03T05:10:51;5.43;;;1.10;;
10281;SDS011;5186;59.472;18.048;2023-04-03T05:13:18;3.47;;;0.90;;
10281;SDS011;5186;59.472;18.048;2023-04-03T05:15:44;6.47;;;1.40;;
10281;SDS011;5186;59.472;18.048;2023-04-03T05:18:10;4.00;;;1.10;;
10281;SDS011;5186;59.472;18.048;2023-04-03T05:20:35;5.63;;;1.00;;
10281;SDS011;5186;59.472;18.048;2023-04-03T05:23:02;4.93;;;1.27;;
10281;SDS011;5186;59.472;18.048;2023-04-03T05:25:28;4.33;;;1.57;;
10281;SDS011;5186;59.472;18.048;2023-04-03T05:27:53;3.37;;;1.10;;
10281;SDS011;5186;59.472;18.048;2023-04-03T05:30:19;2.30;;;1.20;;
10281;SDS011;5186;59.472;18.048;2023-04-03T05:32:45;2.47;;;0.83;;
10281;SDS011;5186;59.472;18.048;2023-04-03T05:35:10;4.30;;;0.90;;
10281;SDS011;5186;59.472;18.048;2023-04-03T05:37:36;4.30;;;1.10;;
10281;SDS011;5186;59.472;18.048;2023-04-03T05:40:02;8.87;;;1.33;;
10281;SDS011;5186;59.472;18.048;2023-04-03T05:42:29;3.60;;;1.30;;
10281;SDS011;5186;59.472;18.048;2023-04-03T05:44:54;6.10;;;1.80;;
10281;SDS011;5186;59.472;18.048;2023-04-03T05:47:20;4.00;;;1.03;;
10281;SDS011;5186;59.472;18.048;2023-04-03T05:49:46;5.83;;;1.20;;
10281;SDS011;5186;59.472;18.048;2023-04-03T05:52:17;1.73;;;0.90;;
10281;SDS011;5186;59.472;18.048;2023-04-03T05:54:54;3.77;;;1.20;;
10281;SDS011;5186;59.472;18.048;2023-04-03T05:57:20;3.83;;;1.00;;
10281;SDS011;5186;59.472;18.048;2023-04-03T05:59:46;10.57;;;1.30;;
10281;SDS011;5186;59.472;18.048;2023-04-03T06:02:13;2.47;;;0.97;;
10281;SDS011;5186;59.472;18.048;2023-04-03T06:04:43;3.77;;;1.03;;
10281;SDS011;5186;59.472;18.048;2023-04-03T06:07:13;4.53;;;1.03;;
10281;SDS011;5186;59.472;18.048;2023-04-03T06:09:40;2.83;;;0.90;;
10281;SDS011;5186;59.472;18.048;2023-04-03T06:12:06;5.10;;;1.30;;
10281;SDS011;5186;59.472;18.048;2023-04-03T06:14:32;5.80;;;1.87;;
10281;SDS011;5186;59.472;18.048;2023-04-03T06:16:57;5.20;;;1.20;;
10281;SDS011;5186;59.472;18.048;2023-04-03T06:19:23;7.00;;;1.67;;
10281;SDS011;5186;59.472;18.048;2023-04-03T06:21:48;4.43;;;1.00;;
10281;SDS011;5186;59.472;18.048;2023-04-03T06:24:15;4.77;;;1.27;;
10281;SDS011;5186;59.472;18.048;2023-04-03T06:26:42;6.30;;;1.43;;
10281;SDS011;5186;59.472;18.048;2023-04-03T06:29:08;8.93;;;1.60;;
10281;SDS011;5186;59.472;18.048;2023-04-03T06:31:34;4.13;;;1.10;;
10281;SDS011;5186;59.472;18.048;2023-04-03T06:34:01;4.87;;;1.50;;
10281;SDS011;5186;59.472;18.048;2023-04-03T06:36:27;3.77;;;1.20;;
10281;SDS011;5186;59.472;18.048;2023-04-03T06:38:54;2.23;;;1.13;;
10281;SDS011;5186;59.472;18.048;2023-04-03T06:41:19;5.70;;;1.10;;
10281;SDS011;5186;59.472;18.048;2023-04-03T06:43:46;5.07;;;1.57;;
10281;SDS011;5186;59.472;18.048;2023-04-03T06:46:18;4.00;;;1.33;;
10281;SDS011;5186;59.472;18.048;2023-04-03T06:48:46;6.67;;;1.50;;
10281;SDS011;5186;59.472;18.048;2023-04-03T06:51:19;2.27;;;0.87;;
10281;SDS011;5186;59.472;18.048;2023-04-03T06:53:53;6.33;;;1.83;;
10281;SDS011;5186;59.472;18.048;2023-04-03T06:56:20;3.03;;;1.33;;
10281;SDS011;5186;59.472;18.048;2023-04-03T06:58:47;4.83;;;1.20;;
10281;SDS011;5186;59.472;18.048;2023-04-03T07:01:13;6.77;;;1.10;;
10281;SDS011;5186;59.472;18.048;2023-04-03T07:03:40;7.00;;;1.47;;
10281;SDS011;5186;59.472;18.048;2023-04-03T07:06:06;7.37;;;1.33;;
10281;SDS011;5186;59.472;18.048;2023-04-03T07:08:34;5.23;;;1.37;;
10281;SDS011;5186;59.472;18.048;2023-04-03T07:11:00;4.33;;;1.10;;
10281;SDS011;5186;59.472;18.048;2023-04-03T07:13:26;8.60;;;1.20;;
10281;SDS011;5186;59.472;18.048;2023-04-03T07:15:52;4.10;;;1.00;;
10281;SDS011;5186;59.472;18.048;2023-04-03T07:18:18;6.60;;;1.33;;
10281;SDS011;5186;59.472;18.048;2023-04-03T07:20:44;5.93;;;1.40;;
10281;SDS011;5186;59.472;18.048;2023-04-03T07:23:10;9.67;;;1.57;;
10281;SDS011;5186;59.472;18.048;2023-04-03T07:25:36;4.73;;;1.23;;
10281;SDS011;5186;59.472;18.048;2023-04-03T07:28:02;9.37;;;1.50;;
10281;SDS011;5186;59.472;18.048;2023-04-03T07:30:28;6.70;;;1.53;;
10281;SDS011;5186;59.472;18.048;2023-04-03T07:32:54;8.77;;;1.53;;
10281;SDS011;5186;59.472;18.048;2023-04-03T07:35:20;5.00;;;1.33;;
10281;SDS011;5186;59.472;18.048;2023-04-03T07:37:45;7.57;;;1.33;;
10281;SDS011;5186;59.472;18.048;2023-04-03T07:40:11;4.83;;;1.23;;
10281;SDS011;5186;59.472;18.048;2023-04-03T07:42:37;7.67;;;1.90;;
10281;SDS011;5186;59.472;18.048;2023-04-03T07:45:03;4.37;;;1.13;;
10281;SDS011;5186;59.472;18.048;2023-04-03T07:47:29;6.07;;;1.10;;
10281;SDS011;5186;59.472;18.048;2023-04-03T07:49:56;3.37;;;1.30;;
10281;SDS011;5186;59.472;18.048;2023-04-03T07:52:22;3.20;;;1.10;;
10281;SDS011;5186;59.472;18.048;2023-04-03T07:54:48;5.73;;;1.17;;
10281;SDS011;5186;59.472;18.048;2023-04-03T07:57:13;5.97;;;1.20;;
10281;SDS011;5186;59.472;18.048;2023-04-03T07:59:39;2.57;;;1.00;;
10281;SDS011;5186;59.472;18.048;2023-04-03T08:02:08;6.97;;;1.50;;
10281;SDS011;5186;59.472;18.048;2023-04-03T08:04:37;2.97;;;1.10;;
10281;SDS011;5186;59.472;18.048;2023-04-03T08:07:03;4.90;;;1.00;;
10281;SDS011;5186;59.472;18.048;2023-04-03T08:09:29;3.90;;;1.17;;
10281;SDS011;5186;59.472;18.048;2023-04-03T08:11:54;4.23;;;0.97;;
10281;SDS011;5186;59.472;18.048;2023-04-03T08:14:20;3.90;;;1.20;;
10281;SDS011;5186;59.472;18.048;2023-04-03T08:16:46;2.23;;;1.00;;
10281;SDS011;5186;59.472;18.048;2023-04-03T08:19:13;2.97;;;0.90;;
10281;SDS011;5186;59.472;18.048;2023-04-03T08:21:40;3.73;;;0.90;;
10281;SDS011;5186;59.472;18.048;2023-04-03T08:24:06;2.37;;;0.93;;
10281;SDS011;5186;59.472;18.048;2023-04-03T08:26:32;2.60;;;1.00;;
10281;SDS011;5186;59.472;18.048;2023-04-03T08:28:58;6.03;;;1.20;;
10281;SDS011;5186;59.472;18.048;2023-04-03T08:31:23;1.73;;;0.77;;
10281;SDS011;5186;59.472;18.048;2023-04-03T08:33:49;5.20;;;1.00;;
10281;SDS011;5186;59.472;18.048;2023-04-03T08:36:22;5.67;;;1.00;;
10281;SDS011;5186;59.472;18.048;2023-04-03T08:38:52;2.67;;;0.80;;
10281;SDS011;5186;59.472;18.048;2023-04-03T08:41:27;4.33;;;1.27;;
10281;SDS011;5186;59.472;18.048;2023-04-03T08:49:26;6.10;;;1.17;;
10281;SDS011;5186;59.472;18.048;2023-04-03T08:52:14;3.20;;;1.00;;
10281;SDS011;5186;59.472;18.048;2023-04-03T09:00:06;1.60;;;0.80;;
10281;SDS011;5186;59.472;18.048;2023-04-03T09:02:41;6.13;;;0.87;;
10281;SDS011;5186;59.472;18.048;2023-04-03T09:05:14;1.77;;;0.90;;
10281;SDS011;5186;59.472;18.048;2023-04-03T09:08:04;5.53;;;1.00;;
10281;SDS011;5186;59.472;18.048;2023-04-03T09:10:41;2.20;;;0.80;;
10281;SDS011;5186;59.472;18.048;2023-04-03T09:15:45;3.27;;;0.90;;
10281;SDS011;5186;59.472;18.048;2023-04-03T09:18:21;2.93;;;0.53;;
10281;SDS011;5186;59.472;18.048;2023-04-03T09:20:56;3.90;;;0.70;;
10281;SDS011;5186;59.472;18.048;2023-04-03T09:23:59;2.50;;;1.00;;
10281;SDS011;5186;59.472;18.048;2023-04-03T09:26:28;3.37;;;0.90;;
10281;SDS011;5186;59.472;18.048;2023-04-03T09:29:00;4.57;;;0.77;;
10281;SDS011;5186;59.472;18.048;2023-04-03T09:31:35;2.53;;;0.80;;
10281;SDS011;5186;59.472;18.048;2023-04-03T09:37:01;6.93;;;1.30;;
10281;SDS011;5186;59.472;18.048;2023-04-03T09:39:31;2.60;;;0.90;;
10281;SDS011;5186;59.472;18.048;2023-04-03T09:42:14;2.60;;;1.03;;
10281;SDS011;5186;59.472;18.048;2023-04-03T09:47:27;1.53;;;0.77;;
10281;SDS011;5186;59.472;18.048;2023-04-03T09:52:46;3.17;;;0.90;;
10281;SDS011;5186;59.472;18.048;2023-04-03T09:57:40;2.37;;;0.90;;
10281;SDS011;5186;59.472;18.048;2023-04-03T10:00:10;3.17;;;0.73;;
10281;SDS011;5186;59.472;18.048;2023-04-03T10:02:44;3.13;;;1.10;;
10281;SDS011;5186;59.472;18.048;2023-04-03T10:10:38;2.70;;;0.53;;
10281;SDS011;5186;59.472;18.048;2023-04-03T10:13:29;6.50;;;1.03;;
10281;SDS011;5186;59.472;18.048;2023-04-03T10:15:56;3.23;;;0.70;;
10281;SDS011;5186;59.472;18.048;2023-04-03T10:21:29;4.30;;;0.77;;
10281;SDS011;5186;59.472;18.048;2023-04-03T10:26:49;1.93;;;0.50;;
10281;SDS011;5186;59.472;18.048;2023-04-03T10:29:43;2.70;;;0.80;;
10281;SDS011;5186;59.472;18.048;2023-04-03T10:34:58;1.87;;;0.60;;
10281;SDS011;5186;59.472;18.048;2023-04-03T10:37:43;3.13;;;0.60;;
10281;SDS011;5186;59.472;18.048;2023-04-03T10:45:45;0.63;;;0.50;;
10281;SDS011;5186;59.472;18.048;2023-04-03T10:48:59;4.53;;;0.73;;
10281;SDS011;5186;59.472;18.048;2023-04-03T10:51:39;2.20;;;0.80;;
10281;SDS011;5186;59.472;18.048;2023-04-03T10:54:11;4.67;;;0.90;;
10281;SDS011;5186;59.472;18.048;2023-04-03T11:01:56;1.70;;;0.50;;
10281;SDS011;5186;59.472;18.048;2023-04-03T11:04:26;0.97;;;0.60;;
10281;SDS011;5186;59.472;18.048;2023-04-03T11:07:01;1.23;;;0.60;;
10281;SDS011;5186;59.472;18.048;2023-04-03T11:09:50;1.10;;;0.47;;
10281;SDS011;5186;59.472;18.048;2023-04-03T11:12:23;1.33;;;0.47;;
10281;SDS011;5186;59.472;18.048;2023-04-03T11:14:53;2.40;;;0.63;;
10281;SDS011;5186;59.472;18.048;2023-04-03T11:17:30;2.47;;;0.57;;
10281;SDS011;5186;59.472;18.048;2023-04-03T11:22:50;2.30;;;0.70;;
10281;SDS011;5186;59.472;18.048;2023-04-03T11:25:24;1.60;;;0.60;;
10281;SDS011;5186;59.472;18.048;2023-04-03T11:30:32;1.27;;;0.40;;
10281;SDS011;5186;59.472;18.048;2023-04-03T11:33:19;2.93;;;0.67;;
10281;SDS011;5186;59.472;18.048;2023-04-03T11:36:02;1.17;;;0.30;;
10281;SDS011;5186;59.472;18.048;2023-04-03T11:38:35;2.13;;;0.57;;
10281;SDS011;5186;59.472;18.048;2023-04-03T11:41:06;1.07;;;0.50;;
10281;SDS011;5186;59.472;18.048;2023-04-03T11:43:33;2.27;;;0.60;;
10281;SDS011;5186;59.472;18.048;2023-04-03T11:46:05;3.00;;;0.90;;
10281;SDS011;5186;59.472;18.048;2023-04-03T11:51:01;2.73;;;0.40;;
10281;SDS011;5186;59.472;18.048;2023-04-03T11:53:47;2.17;;;0.50;;
10281;SDS011;5186;59.472;18.048;2023-04-03T11:59:14;1.37;;;0.67;;
10281;SDS011;5186;59.472;18.048;2023-04-03T12:01:47;1.43;;;0.40;;
10281;SDS011;5186;59.472;18.048;2023-04-03T12:04:13;2.10;;;0.40;;
10281;SDS011;5186;59.472;18.048;2023-04-03T12:11:52;0.87;;;0.43;;
10281;SDS011;5186;59.472;18.048;2023-04-03T12:14:18;0.30;;;0.30;;
10281;SDS011;5186;59.472;18.048;2023-04-03T12:16:49;2.53;;;0.57;;
10281;SDS011;5186;59.472;18.048;2023-04-03T12:19:36;2.47;;;0.57;;
10281;SDS011;5186;59.472;18.048;2023-04-03T12:22:06;5.30;;;0.60;;
10281;SDS011;5186;59.472;18.048;2023-04-03T12:24:34;1.53;;;0.40;;
10281;SDS011;5186;59.472;18.048;2023-04-03T12:28:04;2.77;;;0.37;;
10281;SDS011;5186;59.472;18.048;2023-04-03T12:48:38;1.80;;;0.57;;
10281;SDS011;5186;59.472;18.048;2023-04-03T12:51:15;2.40;;;0.50;;
10281;SDS011;5186;59.472;18.048;2023-04-03T12:53:46;4.33;;;0.40;;
10281;SDS011;5186;59.472;18.048;2023-04-03T12:56:21;2.20;;;0.40;;
10281;SDS011;5186;59.472;18.048;2023-04-03T12:58:50;2.40;;;0.40;;
10281;SDS011;5186;59.472;18.048;2023-04-03T13:01:17;1.47;;;0.50;;
10281;SDS011;5186;59.472;18.048;2023-04-03T13:03:53;4.17;;;0.70;;
10281;SDS011;5186;59.472;18.048;2023-04-03T13:06:28;1.83;;;0.60;;
10281;SDS011;5186;59.472;18.048;2023-04-03T13:08:59;9.27;;;0.67;;
10281;SDS011;5186;59.472;18.048;2023-04-03T13:11:30;0.80;;;0.30;;
10281;SDS011;5186;59.472;18.048;2023-04-03T13:14:04;3.47;;;0.40;;
10281;SDS011;5186;59.472;18.048;2023-04-03T13:16:39;5.77;;;0.70;;
10281;SDS011;5186;59.472;18.048;2023-04-03T13:19:06;4.70;;;0.60;;
10281;SDS011;5186;59.472;18.048;2023-04-03T13:21:40;0.30;;;0.30;;
10281;SDS011;5186;59.472;18.048;2023-04-03T13:24:06;1.70;;;0.43;;
10281;SDS011;5186;59.472;18.048;2023-04-03T13:26:34;5.60;;;0.70;;
10281;SDS011;5186;59.472;18.048;2023-04-03T13:29:04;1.33;;;0.43;;
10281;SDS011;5186;59.472;18.048;2023-04-03T13:31:33;2.37;;;0.50;;
10281;SDS011;5186;59.472;18.048;2023-04-03T13:34:15;1.50;;;0.60;;
10281;SDS011;5186;59.472;18.048;2023-04-03T13:36:44;11.33;;;0.80;;
10281;SDS011;5186;59.472;18.048;2023-04-03T13:41:51;2.30;;;0.50;;
10281;SDS011;5186;59.472;18.048;2023-04-03T13:46:51;6.27;;;0.97;;
10281;SDS011;5186;59.472;18.048;2023-04-03T13:49:39;1.60;;;0.50;;
10281;SDS011;5186;59.472;18.048;2023-04-03T14:02:50;2.90;;;0.60;;
10281;SDS011;5186;59.472;18.048;2023-04-03T14:05:21;1.10;;;0.50;;
10281;SDS011;5186;59.472;18.048;2023-04-03T14:07:49;2.40;;;0.50;;
10281;SDS011;5186;59.472;18.048;2023-04-03T14:10:15;2.63;;;0.53;;
10281;SDS011;5186;59.472;18.048;2023-04-03T14:12:41;1.57;;;0.40;;
10281;SDS011;5186;59.472;18.048;2023-04-03T14:15:12;3.27;;;0.70;;
10281;SDS011;5186;59.472;18.048;2023-04-03T14:17:49;2.67;;;0.73;;
10281;SDS011;5186;59.472;18.048;2023-04-03T14:20:16;2.73;;;0.60;;
10281;SDS011;5186;59.472;18.048;2023-04-03T14:22:46;1.80;;;0.50;;
10281;SDS011;5186;59.472;18.048;2023-04-03T14:25:14;2.23;;;0.87;;
10281;SDS011;5186;59.472;18.048;2023-04-03T14:27:44;1.23;;;0.40;;
10281;SDS011;5186;59.472;18.048;2023-04-03T14:30:14;1.70;;;0.87;;
10281;SDS011;5186;59.472;18.048;2023-04-03T14:32:42;1.80;;;0.60;;
10281;SDS011;5186;59.472;18.048;2023-04-03T14:35:08;4.60;;;0.90;;
10281;SDS011;5186;59.472;18.048;2023-04-03T14:37:33;2.73;;;0.80;;
10281;SDS011;5186;59.472;18.048;2023-04-03T14:40:00;2.80;;;0.60;;
10281;SDS011;5186;59.472;18.048;2023-04-03T14:42:29;4.33;;;0.70;;
10281;SDS011;5186;59.472;18.048;2023-04-03T14:45:00;2.57;;;0.70;;
10281;SDS011;5186;59.472;18.048;2023-04-03T14:47:28;2.80;;;0.70;;
10281;SDS011;5186;59.472;18.048;2023-04-03T14:49:55;3.40;;;0.60;;
10281;SDS011;5186;59.472;18.048;2023-04-03T14:52:26;1.43;;;0.50;;
10281;SDS011;5186;59.472;18.048;2023-04-03T14:54:54;5.30;;;0.90;;
10281;SDS011;5186;59.472;18.048;2023-04-03T14:57:21;2.10;;;0.40;;
10281;SDS011;5186;59.472;18.048;2023-04-03T14:59:49;2.53;;;0.83;;
10281;SDS011;5186;59.472;18.048;2023-04-03T15:04:58;2.70;;;0.80;;
10281;SDS011;5186;59.472;18.048;2023-04-03T15:07:27;3.90;;;0.90;;
10281;SDS011;5186;59.472;18.048;2023-04-03T15:09:55;1.07;;;0.57;;
10281;SDS011;5186;59.472;18.048;2023-04-03T15:12:24;1.10;;;0.50;;
10281;SDS011;5186;59.472;18.048;2023-04-03T15:14:50;2.57;;;0.50;;
10281;SDS011;5186;59.472;18.048;2023-04-03T15:17:17;3.37;;;0.70;;
10281;SDS011;5186;59.472;18.048;2023-04-03T15:19:45;2.17;;;0.50;;
10281;SDS011;5186;59.472;18.048;2023-04-03T15:22:18;3.50;;;0.60;;
10281;SDS011;5186;59.472;18.048;2023-04-03T15:24:44;2.63;;;0.67;;
10281;SDS011;5186;59.472;18.048;2023-04-03T15:27:11;2.87;;;0.50;;
10281;SDS011;5186;59.472;18.048;2023-04-03T15:29:38;2.60;;;0.60;;
10281;SDS011;5186;59.472;18.048;2023-04-03T15:32:05;2.73;;;0.60;;
10281;SDS011;5186;59.472;18.048;2023-04-03T15:34:31;4.43;;;0.80;;
10281;SDS011;5186;59.472;18.048;2023-04-03T15:36:57;4.70;;;0.60;;
10281;SDS011;5186;59.472;18.048;2023-04-03T15:39:24;2.97;;;0.67;;
10281;SDS011;5186;59.472;18.048;2023-04-03T15:41:50;0.80;;;0.50;;
10281;SDS011;5186;59.472;18.048;2023-04-03T15:44:17;2.30;;;0.50;;
10281;SDS011;5186;59.472;18.048;2023-04-03T15:46:43;3.13;;;0.60;;
10281;SDS011;5186;59.472;18.048;2023-04-03T15:49:10;4.43;;;0.63;;
10281;SDS011;5186;59.472;18.048;2023-04-03T15:51:37;2.13;;;0.83;;
10281;SDS011;5186;59.472;18.048;2023-04-03T15:54:02;2.97;;;0.77;;
10281;SDS011;5186;59.472;18.048;2023-04-03T15:56:28;3.63;;;0.60;;
10281;SDS011;5186;59.472;18.048;2023-04-03T15:58:54;2.67;;;0.60;;
10281;SDS011;5186;59.472;18.048;2023-04-03T16:01:19;2.10;;;0.77;;
10281;SDS011;5186;59.472;18.048;2023-04-03T16:03:45;3.80;;;0.70;;
10281;SDS011;5186;59.472;18.048;2023-04-03T16:06:15;2.03;;;0.63;;
10281;SDS011;5186;59.472;18.048;2023-04-03T16:08:41;0.80;;;0.33;;
10281;SDS011;5186;59.472;18.048;2023-04-03T16:11:07;3.97;;;0.80;;
10281;SDS011;5186;59.472;18.048;2023-04-03T16:13:33;1.03;;;0.50;;
10281;SDS011;5186;59.472;18.048;2023-04-03T16:15:59;7.40;;;1.17;;
10281;SDS011;5186;59.472;18.048;2023-04-03T16:18:26;6.63;;;1.03;;
10281;SDS011;5186;59.472;18.048;2023-04-03T16:20:52;2.47;;;0.90;;
10281;SDS011;5186;59.472;18.048;2023-04-03T16:23:18;4.77;;;0.67;;
10281;SDS011;5186;59.472;18.048;2023-04-03T16:25:44;2.00;;;0.70;;
10281;SDS011;5186;59.472;18.048;2023-04-03T16:28:11;1.27;;;0.60;;
10281;SDS011;5186;59.472;18.048;2023-04-03T16:30:42;2.93;;;0.50;;
10281;SDS011;5186;59.472;18.048;2023-04-03T16:33:12;4.90;;;1.10;;
10281;SDS011;5186;59.472;18.048;2023-04-03T16:35:38;3.60;;;0.90;;
10281;SDS011;5186;59.472;18.048;2023-04-03T16:38:04;4.43;;;0.70;;
10281;SDS011;5186;59.472;18.048;2023-04-03T16:40:30;4.10;;;0.60;;